sensor_id;sensor_type;location;lat;lon;timestamp;P1;durP1;ratioP1;P2;durP2;ratioP2
1390;SDS011;690;51.454;7.194;2023-11-19T00:00:09;1.47;;;1.37;;
1390;SDS011;690;51.454;7.194;2023-11-19T00:02:44;2.70;;;1.23;;
1390;SDS011;690;51.454;7.194;2023-11-19T00:05:12;1.70;;;1.47;;
1390;SDS011;690;51.454;7.194;2023-11-19T00:07:39;1.90;;;1.70;;
1390;SDS011;690;51.454;7.194;2023-11-19T00:10:09;1.57;;;1.40;;
1390;SDS011;690;51.454;7.194;2023-11-19T00:12:37;2.23;;;1.67;;
1390;SDS011;690;51.454;7.194;2023-11-19T00:15:05;2.30;;;1.57;;
1390;SDS011;690;51.454;7.194;2023-11-19T00:17:36;1.60;;;1.50;;
1390;SDS011;690;51.454;7.194;2023-11-19T00:20:05;2.10;;;1.90;;
1390;SDS011;690;51.454;7.194;2023-11-19T00:22:33;3.20;;;2.90;;
1390;SDS011;690;51.454;7.194;2023-11-19T00:25:00;3.80;;;2.07;;
1390;SDS011;690;51.454;7.194;2023-11-19T00:27:28;2.40;;;2.13;;
1390;SDS011;690;51.454;7.194;2023-11-19T00:29:55;2.60;;;2.40;;
1390;SDS011;690;51.454;7.194;2023-11-19T00:32:23;2.80;;;2.50;;
1390;SDS011;690;51.454;7.194;2023-11-19T00:34:50;3.00;;;2.67;;
1390;SDS011;690;51.454;7.194;2023-11-19T00:37:17;3.10;;;2.90;;
1390;SDS011;690;51.454;7.194;2023-11-19T00:39:44;4.20;;;3.20;;
1390;SDS011;690;51.454;7.194;2023-11-19T00:42:11;3.83;;;3.30;;
1390;SDS011;690;51.454;7.194;2023-11-19T00:44:40;3.50;;;3.10;;
1390;SDS011;690;51.454;7.194;2023-11-19T00:47:09;4.73;;;3.00;;
1390;SDS011;690;51.454;7.194;2023-11-19T00:49:36;3.37;;;2.90;;
1390;SDS011;690;51.454;7.194;2023-11-19T00:52:03;4.10;;;3.70;;
1390;SDS011;690;51.454;7.194;2023-11-19T00:54:31;4.20;;;3.70;;
1390;SDS011;690;51.454;7.194;2023-11-19T00:56:58;4.23;;;3.80;;
1390;SDS011;690;51.454;7.194;2023-11-19T00:59:26;4.17;;;3.77;;
1390;SDS011;690;51.454;7.194;2023-11-19T01:01:55;4.43;;;3.93;;
1390;SDS011;690;51.454;7.194;2023-11-19T01:04:22;4.13;;;3.73;;
1390;SDS011;690;51.454;7.194;2023-11-19T01:06:49;5.67;;;3.90;;
1390;SDS011;690;51.454;7.194;2023-11-19T01:09:16;5.20;;;3.70;;
1390;SDS011;690;51.454;7.194;2023-11-19T01:11:43;4.60;;;4.20;;
1390;SDS011;690;51.454;7.194;2023-11-19T01:14:10;3.93;;;3.53;;
1390;SDS011;690;51.454;7.194;2023-11-19T01:16:37;3.87;;;3.57;;
1390;SDS011;690;51.454;7.194;2023-11-19T01:19:05;4.50;;;3.90;;
1390;SDS011;690;51.454;7.194;2023-11-19T01:21:33;4.10;;;3.47;;
1390;SDS011;690;51.454;7.194;2023-11-19T01:23:59;4.20;;;3.80;;
1390;SDS011;690;51.454;7.194;2023-11-19T01:26:28;7.23;;;4.90;;
1390;SDS011;690;51.454;7.194;2023-11-19T01:28:55;4.00;;;3.33;;
1390;SDS011;690;51.454;7.194;2023-11-19T01:31:22;4.03;;;3.60;;
1390;SDS011;690;51.454;7.194;2023-11-19T01:33:48;4.40;;;3.03;;
1390;SDS011;690;51.454;7.194;2023-11-19T01:36:17;3.43;;;3.13;;
1390;SDS011;690;51.454;7.194;2023-11-19T01:38:43;6.87;;;3.20;;
1390;SDS011;690;51.454;7.194;2023-11-19T01:41:10;6.17;;;3.03;;
1390;SDS011;690;51.454;7.194;2023-11-19T01:43:38;2.97;;;2.50;;
1390;SDS011;690;51.454;7.194;2023-11-19T01:46:07;3.00;;;2.70;;
1390;SDS011;690;51.454;7.194;2023-11-19T01:48:36;4.43;;;3.00;;
1390;SDS011;690;51.454;7.194;2023-11-19T01:51:06;3.60;;;2.50;;
1390;SDS011;690;51.454;7.194;2023-11-19T01:53:36;3.10;;;2.20;;
1390;SDS011;690;51.454;7.194;2023-11-19T01:56:05;2.70;;;2.50;;
1390;SDS011;690;51.454;7.194;2023-11-19T01:58:34;2.90;;;2.60;;
1390;SDS011;690;51.454;7.194;2023-11-19T02:01:02;2.97;;;2.60;;
1390;SDS011;690;51.454;7.194;2023-11-19T02:03:30;2.70;;;2.27;;
1390;SDS011;690;51.454;7.194;2023-11-19T02:05:58;3.03;;;2.73;;
1390;SDS011;690;51.454;7.194;2023-11-19T02:08:25;4.20;;;2.57;;
1390;SDS011;690;51.454;7.194;2023-11-19T02:10:53;3.30;;;2.70;;
1390;SDS011;690;51.454;7.194;2023-11-19T02:13:25;2.40;;;2.13;;
1390;SDS011;690;51.454;7.194;2023-11-19T02:15:53;7.30;;;2.60;;
1390;SDS011;690;51.454;7.194;2023-11-19T02:18:21;3.53;;;2.87;;
1390;SDS011;690;51.454;7.194;2023-11-19T02:20:52;4.53;;;2.33;;
1390;SDS011;690;51.454;7.194;2023-11-19T02:23:20;2.53;;;2.33;;
1390;SDS011;690;51.454;7.194;2023-11-19T02:25:50;2.57;;;2.37;;
1390;SDS011;690;51.454;7.194;2023-11-19T02:28:28;3.20;;;2.90;;
1390;SDS011;690;51.454;7.194;2023-11-19T02:30:55;3.07;;;2.70;;
1390;SDS011;690;51.454;7.194;2023-11-19T02:33:22;4.57;;;2.80;;
1390;SDS011;690;51.454;7.194;2023-11-19T02:35:50;3.30;;;3.00;;
1390;SDS011;690;51.454;7.194;2023-11-19T02:38:18;5.30;;;3.37;;
1390;SDS011;690;51.454;7.194;2023-11-19T02:40:47;6.73;;;3.10;;
1390;SDS011;690;51.454;7.194;2023-11-19T02:43:14;4.30;;;2.60;;
1390;SDS011;690;51.454;7.194;2023-11-19T02:45:42;6.73;;;2.43;;
1390;SDS011;690;51.454;7.194;2023-11-19T02:48:10;4.27;;;2.50;;
1390;SDS011;690;51.454;7.194;2023-11-19T02:50:39;3.43;;;2.30;;
1390;SDS011;690;51.454;7.194;2023-11-19T02:53:06;3.47;;;3.17;;
1390;SDS011;690;51.454;7.194;2023-11-19T02:55:33;6.10;;;2.63;;
1390;SDS011;690;51.454;7.194;2023-11-19T02:58:03;5.93;;;2.20;;
1390;SDS011;690;51.454;7.194;2023-11-19T03:00:39;8.63;;;2.67;;
1390;SDS011;690;51.454;7.194;2023-11-19T03:03:14;5.10;;;1.70;;
1390;SDS011;690;51.454;7.194;2023-11-19T03:05:45;3.80;;;2.27;;
1390;SDS011;690;51.454;7.194;2023-11-19T03:08:13;4.07;;;2.27;;
1390;SDS011;690;51.454;7.194;2023-11-19T03:10:40;7.60;;;2.40;;
1390;SDS011;690;51.454;7.194;2023-11-19T03:13:09;3.40;;;2.60;;
1390;SDS011;690;51.454;7.194;2023-11-19T03:15:49;6.83;;;2.60;;
1390;SDS011;690;51.454;7.194;2023-11-19T03:18:18;4.93;;;2.20;;
1390;SDS011;690;51.454;7.194;2023-11-19T03:20:46;5.97;;;2.37;;
1390;SDS011;690;51.454;7.194;2023-11-19T03:23:14;7.27;;;2.70;;
1390;SDS011;690;51.454;7.194;2023-11-19T03:25:41;10.30;;;3.33;;
1390;SDS011;690;51.454;7.194;2023-11-19T03:28:09;9.03;;;2.87;;
1390;SDS011;690;51.454;7.194;2023-11-19T03:30:36;6.90;;;2.33;;
1390;SDS011;690;51.454;7.194;2023-11-19T03:33:04;7.90;;;3.23;;
1390;SDS011;690;51.454;7.194;2023-11-19T03:35:32;7.93;;;2.80;;
1390;SDS011;690;51.454;7.194;2023-11-19T03:37:59;11.17;;;3.30;;
1390;SDS011;690;51.454;7.194;2023-11-19T03:40:27;7.63;;;3.03;;
1390;SDS011;690;51.454;7.194;2023-11-19T03:42:55;9.17;;;2.40;;
1390;SDS011;690;51.454;7.194;2023-11-19T03:45:23;6.53;;;2.60;;
1390;SDS011;690;51.454;7.194;2023-11-19T03:47:50;10.47;;;3.23;;
1390;SDS011;690;51.454;7.194;2023-11-19T03:50:17;4.63;;;3.30;;
1390;SDS011;690;51.454;7.194;2023-11-19T03:52:46;9.50;;;3.00;;
1390;SDS011;690;51.454;7.194;2023-11-19T03:55:13;5.10;;;3.20;;
1390;SDS011;690;51.454;7.194;2023-11-19T03:57:40;5.67;;;2.80;;
1390;SDS011;690;51.454;7.194;2023-11-19T04:00:07;11.80;;;3.60;;
1390;SDS011;690;51.454;7.194;2023-11-19T04:02:35;11.23;;;3.50;;
1390;SDS011;690;51.454;7.194;2023-11-19T04:05:02;13.20;;;3.37;;
1390;SDS011;690;51.454;7.194;2023-11-19T04:07:30;10.10;;;2.87;;
1390;SDS011;690;51.454;7.194;2023-11-19T04:09:58;8.37;;;3.17;;
1390;SDS011;690;51.454;7.194;2023-11-19T04:12:45;10.40;;;3.20;;
1390;SDS011;690;51.454;7.194;2023-11-19T04:15:13;12.97;;;2.70;;
1390;SDS011;690;51.454;7.194;2023-11-19T04:17:41;12.13;;;4.00;;
1390;SDS011;690;51.454;7.194;2023-11-19T04:20:08;14.80;;;3.03;;
1390;SDS011;690;51.454;7.194;2023-11-19T04:22:38;8.90;;;2.80;;
1390;SDS011;690;51.454;7.194;2023-11-19T04:25:08;12.97;;;2.60;;
1390;SDS011;690;51.454;7.194;2023-11-19T04:27:36;8.60;;;3.13;;
1390;SDS011;690;51.454;7.194;2023-11-19T04:30:03;9.90;;;2.93;;
1390;SDS011;690;51.454;7.194;2023-11-19T04:32:32;12.37;;;3.17;;
1390;SDS011;690;51.454;7.194;2023-11-19T04:34:59;22.27;;;3.93;;
1390;SDS011;690;51.454;7.194;2023-11-19T04:37:25;9.13;;;3.83;;
1390;SDS011;690;51.454;7.194;2023-11-19T04:39:52;9.97;;;3.30;;
1390;SDS011;690;51.454;7.194;2023-11-19T04:42:23;14.30;;;3.33;;
1390;SDS011;690;51.454;7.194;2023-11-19T04:44:50;11.53;;;3.10;;
1390;SDS011;690;51.454;7.194;2023-11-19T04:47:17;16.60;;;4.13;;
1390;SDS011;690;51.454;7.194;2023-11-19T04:49:44;9.60;;;3.20;;
1390;SDS011;690;51.454;7.194;2023-11-19T04:52:11;8.60;;;2.50;;
1390;SDS011;690;51.454;7.194;2023-11-19T04:54:40;12.67;;;3.80;;
1390;SDS011;690;51.454;7.194;2023-11-19T04:57:08;9.77;;;3.40;;
1390;SDS011;690;51.454;7.194;2023-11-19T04:59:37;10.93;;;3.30;;
1390;SDS011;690;51.454;7.194;2023-11-19T05:02:04;8.93;;;2.77;;
1390;SDS011;690;51.454;7.194;2023-11-19T05:04:31;16.90;;;4.47;;
1390;SDS011;690;51.454;7.194;2023-11-19T05:06:58;19.00;;;3.57;;
1390;SDS011;690;51.454;7.194;2023-11-19T05:09:24;12.53;;;3.60;;
1390;SDS011;690;51.454;7.194;2023-11-19T05:11:51;15.13;;;3.23;;
1390;SDS011;690;51.454;7.194;2023-11-19T05:14:18;12.50;;;3.27;;
1390;SDS011;690;51.454;7.194;2023-11-19T05:16:48;13.60;;;4.00;;
1390;SDS011;690;51.454;7.194;2023-11-19T05:19:14;15.17;;;4.13;;
1390;SDS011;690;51.454;7.194;2023-11-19T05:21:41;18.20;;;3.27;;
1390;SDS011;690;51.454;7.194;2023-11-19T05:24:08;9.90;;;3.17;;
1390;SDS011;690;51.454;7.194;2023-11-19T05:26:36;18.47;;;3.40;;
1390;SDS011;690;51.454;7.194;2023-11-19T05:29:03;19.40;;;3.57;;
1390;SDS011;690;51.454;7.194;2023-11-19T05:31:30;19.07;;;4.57;;
1390;SDS011;690;51.454;7.194;2023-11-19T05:33:58;19.33;;;4.20;;
1390;SDS011;690;51.454;7.194;2023-11-19T05:36:25;9.93;;;3.73;;
1390;SDS011;690;51.454;7.194;2023-11-19T05:38:54;14.03;;;3.93;;
1390;SDS011;690;51.454;7.194;2023-11-19T05:41:21;12.63;;;3.50;;
1390;SDS011;690;51.454;7.194;2023-11-19T05:43:47;28.20;;;4.37;;
1390;SDS011;690;51.454;7.194;2023-11-19T05:46:14;15.37;;;3.60;;
1390;SDS011;690;51.454;7.194;2023-11-19T05:48:41;21.13;;;4.40;;
1390;SDS011;690;51.454;7.194;2023-11-19T05:51:12;17.90;;;4.97;;
1390;SDS011;690;51.454;7.194;2023-11-19T05:53:39;13.60;;;3.63;;
1390;SDS011;690;51.454;7.194;2023-11-19T05:56:06;20.47;;;4.50;;
1390;SDS011;690;51.454;7.194;2023-11-19T05:58:34;21.30;;;3.50;;
1390;SDS011;690;51.454;7.194;2023-11-19T06:01:02;15.20;;;4.07;;
1390;SDS011;690;51.454;7.194;2023-11-19T06:03:32;14.50;;;3.80;;
1390;SDS011;690;51.454;7.194;2023-11-19T06:05:59;17.33;;;4.97;;
1390;SDS011;690;51.454;7.194;2023-11-19T06:08:27;17.83;;;4.83;;
1390;SDS011;690;51.454;7.194;2023-11-19T06:10:55;14.40;;;3.43;;
1390;SDS011;690;51.454;7.194;2023-11-19T06:13:22;16.53;;;4.47;;
1390;SDS011;690;51.454;7.194;2023-11-19T06:15:50;18.70;;;4.40;;
1390;SDS011;690;51.454;7.194;2023-11-19T06:18:17;24.30;;;4.37;;
1390;SDS011;690;51.454;7.194;2023-11-19T06:20:45;15.33;;;3.77;;
1390;SDS011;690;51.454;7.194;2023-11-19T06:23:12;13.33;;;4.30;;
1390;SDS011;690;51.454;7.194;2023-11-19T06:25:40;21.67;;;3.80;;
1390;SDS011;690;51.454;7.194;2023-11-19T06:28:08;16.93;;;3.80;;
1390;SDS011;690;51.454;7.194;2023-11-19T06:30:35;25.27;;;5.23;;
1390;SDS011;690;51.454;7.194;2023-11-19T06:33:01;25.73;;;4.63;;
1390;SDS011;690;51.454;7.194;2023-11-19T06:35:29;12.50;;;4.37;;
1390;SDS011;690;51.454;7.194;2023-11-19T06:38:01;10.20;;;3.20;;
1390;SDS011;690;51.454;7.194;2023-11-19T06:40:28;17.13;;;4.57;;
1390;SDS011;690;51.454;7.194;2023-11-19T06:42:56;15.83;;;4.23;;
1390;SDS011;690;51.454;7.194;2023-11-19T06:45:23;12.63;;;4.67;;
1390;SDS011;690;51.454;7.194;2023-11-19T06:47:50;15.27;;;4.33;;
1390;SDS011;690;51.454;7.194;2023-11-19T06:50:17;9.93;;;3.93;;
1390;SDS011;690;51.454;7.194;2023-11-19T06:52:44;15.43;;;3.13;;
1390;SDS011;690;51.454;7.194;2023-11-19T06:55:11;21.37;;;4.13;;
1390;SDS011;690;51.454;7.194;2023-11-19T06:57:38;27.17;;;5.00;;
1390;SDS011;690;51.454;7.194;2023-11-19T07:00:07;19.97;;;4.60;;
1390;SDS011;690;51.454;7.194;2023-11-19T07:02:36;22.03;;;5.53;;
1390;SDS011;690;51.454;7.194;2023-11-19T07:05:03;16.63;;;4.17;;
1390;SDS011;690;51.454;7.194;2023-11-19T07:07:30;20.17;;;3.93;;
1390;SDS011;690;51.454;7.194;2023-11-19T07:09:58;17.70;;;3.63;;
1390;SDS011;690;51.454;7.194;2023-11-19T07:12:27;11.13;;;3.60;;
1390;SDS011;690;51.454;7.194;2023-11-19T07:14:54;17.90;;;4.57;;
1390;SDS011;690;51.454;7.194;2023-11-19T07:17:22;18.33;;;4.30;;
1390;SDS011;690;51.454;7.194;2023-11-19T07:19:49;15.53;;;3.60;;
1390;SDS011;690;51.454;7.194;2023-11-19T07:22:16;15.77;;;3.47;;
1390;SDS011;690;51.454;7.194;2023-11-19T07:24:43;15.67;;;6.13;;
1390;SDS011;690;51.454;7.194;2023-11-19T07:27:10;17.23;;;4.50;;
1390;SDS011;690;51.454;7.194;2023-11-19T07:29:38;12.13;;;3.23;;
1390;SDS011;690;51.454;7.194;2023-11-19T07:32:05;21.27;;;4.13;;
1390;SDS011;690;51.454;7.194;2023-11-19T07:34:34;16.40;;;4.40;;
1390;SDS011;690;51.454;7.194;2023-11-19T07:37:04;13.30;;;3.93;;
1390;SDS011;690;51.454;7.194;2023-11-19T07:39:32;17.33;;;3.73;;
1390;SDS011;690;51.454;7.194;2023-11-19T07:42:00;14.23;;;3.27;;
1390;SDS011;690;51.454;7.194;2023-11-19T07:44:27;19.53;;;4.00;;
1390;SDS011;690;51.454;7.194;2023-11-19T07:46:54;15.43;;;4.20;;
1390;SDS011;690;51.454;7.194;2023-11-19T07:49:20;10.30;;;3.20;;
1390;SDS011;690;51.454;7.194;2023-11-19T07:51:49;18.70;;;3.87;;
1390;SDS011;690;51.454;7.194;2023-11-19T07:54:16;15.77;;;3.43;;
1390;SDS011;690;51.454;7.194;2023-11-19T07:56:43;14.77;;;3.63;;
1390;SDS011;690;51.454;7.194;2023-11-19T07:59:10;15.27;;;4.47;;
1390;SDS011;690;51.454;7.194;2023-11-19T08:01:37;15.37;;;3.30;;
1390;SDS011;690;51.454;7.194;2023-11-19T08:04:04;18.30;;;4.50;;
1390;SDS011;690;51.454;7.194;2023-11-19T08:06:31;18.53;;;4.07;;
1390;SDS011;690;51.454;7.194;2023-11-19T08:08:59;23.33;;;5.17;;
1390;SDS011;690;51.454;7.194;2023-11-19T08:11:26;12.70;;;3.73;;
1390;SDS011;690;51.454;7.194;2023-11-19T08:13:53;17.30;;;4.53;;
1390;SDS011;690;51.454;7.194;2023-11-19T08:16:20;19.73;;;3.67;;
1390;SDS011;690;51.454;7.194;2023-11-19T08:18:47;15.90;;;3.77;;
1390;SDS011;690;51.454;7.194;2023-11-19T08:21:16;29.33;;;4.87;;
1390;SDS011;690;51.454;7.194;2023-11-19T08:23:42;17.17;;;5.10;;
1390;SDS011;690;51.454;7.194;2023-11-19T08:26:11;17.30;;;3.37;;
1390;SDS011;690;51.454;7.194;2023-11-19T08:28:37;13.30;;;3.70;;
1390;SDS011;690;51.454;7.194;2023-11-19T08:31:06;19.37;;;4.47;;
1390;SDS011;690;51.454;7.194;2023-11-19T08:33:32;15.73;;;3.80;;
1390;SDS011;690;51.454;7.194;2023-11-19T08:35:59;11.97;;;4.00;;
1390;SDS011;690;51.454;7.194;2023-11-19T08:38:29;21.43;;;4.00;;
1390;SDS011;690;51.454;7.194;2023-11-19T08:40:56;13.27;;;3.70;;
1390;SDS011;690;51.454;7.194;2023-11-19T08:43:26;17.57;;;6.40;;
1390;SDS011;690;51.454;7.194;2023-11-19T08:45:56;14.07;;;3.40;;
1390;SDS011;690;51.454;7.194;2023-11-19T08:48:23;12.27;;;3.70;;
1390;SDS011;690;51.454;7.194;2023-11-19T08:50:51;13.93;;;3.77;;
1390;SDS011;690;51.454;7.194;2023-11-19T08:53:18;11.63;;;4.00;;
1390;SDS011;690;51.454;7.194;2023-11-19T08:55:45;20.10;;;3.90;;
1390;SDS011;690;51.454;7.194;2023-11-19T08:58:12;16.93;;;5.70;;
1390;SDS011;690;51.454;7.194;2023-11-19T09:00:41;19.93;;;4.60;;
1390;SDS011;690;51.454;7.194;2023-11-19T09:03:07;21.03;;;4.50;;
1390;SDS011;690;51.454;7.194;2023-11-19T09:05:35;21.80;;;4.03;;
1390;SDS011;690;51.454;7.194;2023-11-19T09:08:04;16.77;;;4.13;;
1390;SDS011;690;51.454;7.194;2023-11-19T09:10:31;17.73;;;3.80;;
1390;SDS011;690;51.454;7.194;2023-11-19T09:12:58;17.50;;;5.33;;
1390;SDS011;690;51.454;7.194;2023-11-19T09:15:25;21.60;;;4.83;;
1390;SDS011;690;51.454;7.194;2023-11-19T09:17:53;17.43;;;4.40;;
1390;SDS011;690;51.454;7.194;2023-11-19T09:20:20;25.10;;;3.33;;
1390;SDS011;690;51.454;7.194;2023-11-19T09:22:47;15.03;;;3.97;;
1390;SDS011;690;51.454;7.194;2023-11-19T09:25:14;16.00;;;4.20;;
1390;SDS011;690;51.454;7.194;2023-11-19T09:27:42;16.67;;;4.60;;
1390;SDS011;690;51.454;7.194;2023-11-19T09:30:09;18.67;;;3.63;;
1390;SDS011;690;51.454;7.194;2023-11-19T09:32:36;20.00;;;4.63;;
1390;SDS011;690;51.454;7.194;2023-11-19T09:35:05;18.90;;;4.57;;
1390;SDS011;690;51.454;7.194;2023-11-19T09:37:32;22.10;;;4.43;;
1390;SDS011;690;51.454;7.194;2023-11-19T09:39:59;18.70;;;4.20;;
1390;SDS011;690;51.454;7.194;2023-11-19T09:42:26;19.47;;;7.70;;
1390;SDS011;690;51.454;7.194;2023-11-19T09:44:53;18.57;;;4.17;;
1390;SDS011;690;51.454;7.194;2023-11-19T09:47:22;15.80;;;3.80;;
1390;SDS011;690;51.454;7.194;2023-11-19T09:49:52;25.17;;;4.27;;
1390;SDS011;690;51.454;7.194;2023-11-19T09:52:21;16.40;;;3.13;;
1390;SDS011;690;51.454;7.194;2023-11-19T09:54:49;22.10;;;4.87;;
1390;SDS011;690;51.454;7.194;2023-11-19T09:57:17;25.93;;;4.40;;
1390;SDS011;690;51.454;7.194;2023-11-19T09:59:44;22.57;;;3.77;;
1390;SDS011;690;51.454;7.194;2023-11-19T10:02:12;13.90;;;4.30;;
1390;SDS011;690;51.454;7.194;2023-11-19T10:04:40;25.57;;;5.10;;
1390;SDS011;690;51.454;7.194;2023-11-19T10:07:10;18.80;;;4.73;;
1390;SDS011;690;51.454;7.194;2023-11-19T10:09:38;20.73;;;4.97;;
1390;SDS011;690;51.454;7.194;2023-11-19T10:12:05;15.27;;;4.77;;
1390;SDS011;690;51.454;7.194;2023-11-19T10:14:32;13.73;;;4.17;;
1390;SDS011;690;51.454;7.194;2023-11-19T10:17:04;16.90;;;3.47;;
1390;SDS011;690;51.454;7.194;2023-11-19T10:19:34;19.17;;;4.60;;
1390;SDS011;690;51.454;7.194;2023-11-19T10:22:02;24.10;;;5.30;;
1390;SDS011;690;51.454;7.194;2023-11-19T10:24:33;15.90;;;4.63;;
1390;SDS011;690;51.454;7.194;2023-11-19T10:27:02;15.23;;;5.40;;
1390;SDS011;690;51.454;7.194;2023-11-19T10:29:35;16.70;;;4.00;;
1390;SDS011;690;51.454;7.194;2023-11-19T10:32:02;15.70;;;5.03;;
1390;SDS011;690;51.454;7.194;2023-11-19T10:34:30;19.13;;;4.80;;
1390;SDS011;690;51.454;7.194;2023-11-19T10:36:57;15.23;;;4.80;;
1390;SDS011;690;51.454;7.194;2023-11-19T10:39:23;22.40;;;5.03;;
1390;SDS011;690;51.454;7.194;2023-11-19T10:42:20;22.63;;;4.70;;
1390;SDS011;690;51.454;7.194;2023-11-19T10:44:47;28.43;;;4.90;;
1390;SDS011;690;51.454;7.194;2023-11-19T10:47:15;26.93;;;4.53;;
1390;SDS011;690;51.454;7.194;2023-11-19T10:49:44;21.33;;;5.77;;
1390;SDS011;690;51.454;7.194;2023-11-19T10:52:12;17.67;;;4.10;;
1390;SDS011;690;51.454;7.194;2023-11-19T10:54:44;21.10;;;4.73;;
1390;SDS011;690;51.454;7.194;2023-11-19T10:57:21;20.30;;;5.70;;
1390;SDS011;690;51.454;7.194;2023-11-19T10:59:51;18.13;;;4.10;;
1390;SDS011;690;51.454;7.194;2023-11-19T11:02:21;20.07;;;4.67;;
1390;SDS011;690;51.454;7.194;2023-11-19T11:04:51;17.93;;;4.23;;
1390;SDS011;690;51.454;7.194;2023-11-19T11:07:19;16.20;;;6.10;;
1390;SDS011;690;51.454;7.194;2023-11-19T11:09:51;19.20;;;5.30;;
1390;SDS011;690;51.454;7.194;2023-11-19T11:12:18;16.50;;;4.40;;
1390;SDS011;690;51.454;7.194;2023-11-19T11:14:50;20.43;;;3.90;;
1390;SDS011;690;51.454;7.194;2023-11-19T11:17:19;19.13;;;4.53;;
1390;SDS011;690;51.454;7.194;2023-11-19T11:19:50;12.77;;;3.50;;
1390;SDS011;690;51.454;7.194;2023-11-19T11:22:22;23.90;;;4.60;;
1390;SDS011;690;51.454;7.194;2023-11-19T11:25:06;18.33;;;4.50;;
1390;SDS011;690;51.454;7.194;2023-11-19T11:27:50;17.17;;;3.53;;
1390;SDS011;690;51.454;7.194;2023-11-19T11:30:29;25.17;;;5.90;;
1390;SDS011;690;51.454;7.194;2023-11-19T11:33:08;20.93;;;4.73;;
1390;SDS011;690;51.454;7.194;2023-11-19T11:35:49;18.10;;;4.33;;
1390;SDS011;690;51.454;7.194;2023-11-19T11:38:21;19.93;;;4.60;;
1390;SDS011;690;51.454;7.194;2023-11-19T11:43:49;15.10;;;4.17;;
1390;SDS011;690;51.454;7.194;2023-11-19T11:49:25;16.47;;;4.10;;
1390;SDS011;690;51.454;7.194;2023-11-19T11:52:01;20.70;;;3.80;;
1390;SDS011;690;51.454;7.194;2023-11-19T11:54:31;14.27;;;4.10;;
1390;SDS011;690;51.454;7.194;2023-11-19T11:57:03;20.90;;;4.10;;
1390;SDS011;690;51.454;7.194;2023-11-19T11:59:40;17.30;;;3.87;;
1390;SDS011;690;51.454;7.194;2023-11-19T12:02:11;15.83;;;3.67;;
1390;SDS011;690;51.454;7.194;2023-11-19T12:04:40;19.33;;;4.70;;
1390;SDS011;690;51.454;7.194;2023-11-19T12:07:08;14.97;;;4.07;;
1390;SDS011;690;51.454;7.194;2023-11-19T12:09:40;15.03;;;4.10;;
1390;SDS011;690;51.454;7.194;2023-11-19T12:12:07;22.37;;;3.60;;
1390;SDS011;690;51.454;7.194;2023-11-19T12:17:36;12.57;;;2.73;;
1390;SDS011;690;51.454;7.194;2023-11-19T12:20:09;14.10;;;4.20;;
1390;SDS011;690;51.454;7.194;2023-11-19T12:22:37;16.20;;;3.80;;
1390;SDS011;690;51.454;7.194;2023-11-19T12:25:04;11.63;;;3.37;;
1390;SDS011;690;51.454;7.194;2023-11-19T12:27:33;14.50;;;3.40;;
1390;SDS011;690;51.454;7.194;2023-11-19T12:30:00;13.60;;;4.10;;
1390;SDS011;690;51.454;7.194;2023-11-19T12:32:38;14.80;;;3.00;;
1390;SDS011;690;51.454;7.194;2023-11-19T12:35:06;14.40;;;3.90;;
1390;SDS011;690;51.454;7.194;2023-11-19T12:37:40;14.60;;;2.93;;
1390;SDS011;690;51.454;7.194;2023-11-19T12:40:11;14.53;;;3.80;;
1390;SDS011;690;51.454;7.194;2023-11-19T12:42:40;10.70;;;3.27;;
1390;SDS011;690;51.454;7.194;2023-11-19T12:45:07;11.23;;;3.43;;
1390;SDS011;690;51.454;7.194;2023-11-19T12:47:38;16.57;;;3.50;;
1390;SDS011;690;51.454;7.194;2023-11-19T12:50:05;11.97;;;2.60;;
1390;SDS011;690;51.454;7.194;2023-11-19T12:52:34;16.10;;;3.83;;
1390;SDS011;690;51.454;7.194;2023-11-19T12:55:03;13.93;;;3.47;;
1390;SDS011;690;51.454;7.194;2023-11-19T12:57:38;11.53;;;2.97;;
1390;SDS011;690;51.454;7.194;2023-11-19T13:00:06;15.23;;;3.30;;
1390;SDS011;690;51.454;7.194;2023-11-19T13:02:46;13.07;;;3.37;;
1390;SDS011;690;51.454;7.194;2023-11-19T13:05:21;12.00;;;2.87;;
1390;SDS011;690;51.454;7.194;2023-11-19T13:07:49;14.30;;;3.70;;
1390;SDS011;690;51.454;7.194;2023-11-19T13:10:16;12.20;;;3.23;;
1390;SDS011;690;51.454;7.194;2023-11-19T13:12:43;17.33;;;3.20;;
1390;SDS011;690;51.454;7.194;2023-11-19T13:15:22;9.30;;;2.87;;
1390;SDS011;690;51.454;7.194;2023-11-19T13:17:52;17.80;;;4.87;;
1390;SDS011;690;51.454;7.194;2023-11-19T13:20:19;13.70;;;2.90;;
1390;SDS011;690;51.454;7.194;2023-11-19T13:22:54;11.93;;;2.97;;
1390;SDS011;690;51.454;7.194;2023-11-19T13:25:25;11.60;;;3.27;;
1390;SDS011;690;51.454;7.194;2023-11-19T13:27:52;10.47;;;2.80;;
1390;SDS011;690;51.454;7.194;2023-11-19T13:30:19;12.90;;;3.40;;
1390;SDS011;690;51.454;7.194;2023-11-19T13:32:47;14.80;;;3.40;;
1390;SDS011;690;51.454;7.194;2023-11-19T13:35:15;13.37;;;2.90;;
1390;SDS011;690;51.454;7.194;2023-11-19T13:37:43;17.57;;;4.40;;
1390;SDS011;690;51.454;7.194;2023-11-19T13:40:10;10.87;;;3.17;;
1390;SDS011;690;51.454;7.194;2023-11-19T13:42:42;9.30;;;2.63;;
1390;SDS011;690;51.454;7.194;2023-11-19T13:45:09;11.90;;;2.77;;
1390;SDS011;690;51.454;7.194;2023-11-19T13:47:38;9.00;;;2.93;;
1390;SDS011;690;51.454;7.194;2023-11-19T13:50:09;13.20;;;2.43;;
1390;SDS011;690;51.454;7.194;2023-11-19T13:52:40;12.93;;;3.27;;
1390;SDS011;690;51.454;7.194;2023-11-19T13:55:11;13.57;;;3.20;;
1390;SDS011;690;51.454;7.194;2023-11-19T13:57:39;7.97;;;2.70;;
1390;SDS011;690;51.454;7.194;2023-11-19T14:00:08;11.47;;;2.57;;
1390;SDS011;690;51.454;7.194;2023-11-19T14:02:38;10.07;;;3.30;;
1390;SDS011;690;51.454;7.194;2023-11-19T14:05:05;11.90;;;3.37;;
1390;SDS011;690;51.454;7.194;2023-11-19T14:07:32;14.90;;;3.83;;
1390;SDS011;690;51.454;7.194;2023-11-19T14:10:01;15.73;;;4.23;;
1390;SDS011;690;51.454;7.194;2023-11-19T14:12:28;11.87;;;3.53;;
1390;SDS011;690;51.454;7.194;2023-11-19T14:14:55;13.80;;;3.20;;
1390;SDS011;690;51.454;7.194;2023-11-19T14:17:22;14.70;;;3.47;;
1390;SDS011;690;51.454;7.194;2023-11-19T14:19:50;12.67;;;3.43;;
1390;SDS011;690;51.454;7.194;2023-11-19T14:22:17;10.67;;;3.10;;
1390;SDS011;690;51.454;7.194;2023-11-19T14:24:44;13.37;;;3.57;;
1390;SDS011;690;51.454;7.194;2023-11-19T14:27:12;11.67;;;3.00;;
1390;SDS011;690;51.454;7.194;2023-11-19T14:29:39;14.47;;;2.80;;
1390;SDS011;690;51.454;7.194;2023-11-19T14:32:06;10.90;;;2.90;;
1390;SDS011;690;51.454;7.194;2023-11-19T14:34:33;16.80;;;3.70;;
1390;SDS011;690;51.454;7.194;2023-11-19T14:37:00;11.03;;;3.70;;
1390;SDS011;690;51.454;7.194;2023-11-19T14:39:27;19.23;;;3.60;;
1390;SDS011;690;51.454;7.194;2023-11-19T14:41:54;12.90;;;3.43;;
1390;SDS011;690;51.454;7.194;2023-11-19T14:44:24;11.50;;;3.83;;
1390;SDS011;690;51.454;7.194;2023-11-19T14:46:51;13.97;;;3.10;;
1390;SDS011;690;51.454;7.194;2023-11-19T14:49:18;8.70;;;2.37;;
1390;SDS011;690;51.454;7.194;2023-11-19T14:51:45;13.30;;;5.10;;
1390;SDS011;690;51.454;7.194;2023-11-19T14:54:12;17.00;;;3.43;;
1390;SDS011;690;51.454;7.194;2023-11-19T14:56:41;11.67;;;3.20;;
1390;SDS011;690;51.454;7.194;2023-11-19T14:59:08;11.03;;;3.40;;
1390;SDS011;690;51.454;7.194;2023-11-19T15:01:36;8.70;;;3.27;;
1390;SDS011;690;51.454;7.194;2023-11-19T15:04:05;12.37;;;3.47;;
1390;SDS011;690;51.454;7.194;2023-11-19T15:06:32;12.93;;;3.97;;
1390;SDS011;690;51.454;7.194;2023-11-19T15:08:59;10.93;;;2.90;;
1390;SDS011;690;51.454;7.194;2023-11-19T15:11:26;22.70;;;3.60;;
1390;SDS011;690;51.454;7.194;2023-11-19T15:13:53;12.87;;;3.53;;
1390;SDS011;690;51.454;7.194;2023-11-19T15:16:20;14.57;;;2.73;;
1390;SDS011;690;51.454;7.194;2023-11-19T15:18:52;14.93;;;4.17;;
1390;SDS011;690;51.454;7.194;2023-11-19T15:21:19;8.80;;;3.07;;
1390;SDS011;690;51.454;7.194;2023-11-19T15:23:46;7.87;;;2.80;;
1390;SDS011;690;51.454;7.194;2023-11-19T15:26:13;9.50;;;3.00;;
1390;SDS011;690;51.454;7.194;2023-11-19T15:28:40;15.93;;;4.30;;
1390;SDS011;690;51.454;7.194;2023-11-19T15:31:06;9.33;;;2.60;;
1390;SDS011;690;51.454;7.194;2023-11-19T15:33:35;9.67;;;2.53;;
1390;SDS011;690;51.454;7.194;2023-11-19T15:36:03;14.20;;;2.50;;